Time,TemperatureF,DewpointF,PressureIn,WindDirection,WindDirectionDegrees,WindSpeedMPH,WindSpeedGustMPH,Humidity,HourlyPrecipIn,Conditions,Clouds,dailyrainin,SoftwareType,DateUTC
2013-03-09 00:00:00,29.1,20.6,30.39,ESE,112,0.0,0.0,70,0.00,,,0.00,WUHU21623XXSP,2013-03-09 05:00:00,
2013-03-09 00:05:00,29.1,20.6,30.39,ESE,112,0.0,0.0,70,0.00,,,0.00,WUHU21623XXSP,2013-03-09 05:05:00,
2013-03-09 00:16:00,29.1,20.6,30.39,ESE,112,0.0,0.0,70,0.00,,,0.00,WUHU21623XXSP,2013-03-09 05:16:00,
2013-03-09 00:21:00,29.1,20.6,30.39,ESE,112,0.0,0.0,70,0.00,,,0.00,WUHU21623XXSP,2013-03-09 05:21:00,
2013-03-09 00:26:00,28.6,20.4,30.38,ESE,112,0.0,0.0,71,0.00,,,0.00,WUHU21623XXSP,2013-03-09 05:26:00,
2013-03-09 00:31:00,28.8,20.6,30.38,ESE,112,0.0,0.0,71,0.00,,,0.00,WUHU21623XXSP,2013-03-09 05:31:00,
2013-03-09 00:36:00,28.8,20.6,30.37,ESE,112,0.0,0.0,71,0.00,,,0.00,WUHU21623XXSP,2013-03-09 05:36:00,
2013-03-09 00:41:00,28.6,20.4,30.37,ESE,112,0.0,0.0,71,0.00,,,0.00,WUHU21623XXSP,2013-03-09 05:41:00,
2013-03-09 00:46:00,28.6,20.4,30.37,ESE,112,0.0,0.0,71,0.00,,,0.00,WUHU21623XXSP,2013-03-09 05:46:00,
2013-03-09 00:51:00,28.8,20.6,30.37,ESE,112,0.0,0.0,71,0.00,,,0.00,WUHU21623XXSP,2013-03-09 05:51:00,
2013-03-09 00:56:00,28.8,20.9,30.37,ESE,112,0.0,0.0,72,0.00,,,0.00,WUHU21623XXSP,2013-03-09 05:56:00,
2013-03-09 01:01:00,28.8,20.9,30.37,ESE,112,0.0,0.0,72,0.00,,,0.00,WUHU21623XXSP,2013-03-09 06:01:00,
2013-03-09 01:08:00,28.8,20.9,30.36,ESE,112,0.0,0.0,72,0.00,,,0.00,WUHU21623XXSP,2013-03-09 06:08:00,
2013-03-09 01:13:00,28.8,20.9,30.36,ESE,112,0.0,0.0,72,0.00,,,0.00,WUHU21623XXSP,2013-03-09 06:13:00,
2013-03-09 01:18:00,28.8,20.9,30.36,ESE,112,0.0,0.0,72,0.00,,,0.00,WUHU21623XXSP,2013-03-09 06:18:00,
2013-03-09 01:23:00,28.8,20.9,30.36,East,90,0.0,0.0,72,0.00,,,0.00,WUHU21623XXSP,2013-03-09 06:23:00,
2013-03-09 01:28:00,28.8,20.9,30.35,East,90,0.0,0.0,72,0.00,,,0.00,WUHU21623XXSP,2013-03-09 06:28:00,
2013-03-09 01:33:00,28.8,20.9,30.36,SE,135,0.0,0.0,72,0.00,,,0.00,WUHU21623XXSP,2013-03-09 06:33:00,
2013-03-09 01:38:00,28.8,21.2,30.36,SE,135,0.0,0.0,73,0.00,,,0.00,WUHU21623XXSP,2013-03-09 06:38:00,
2013-03-09 01:43:00,28.8,21.2,30.36,SE,135,0.0,0.0,73,0.00,,,0.00,WUHU21623XXSP,2013-03-09 06:43:00,
2013-03-09 01:48:00,28.8,21.2,30.36,NE,45,0.0,0.0,73,0.00,,,0.00,WUHU21623XXSP,2013-03-09 06:48:00,
2013-03-09 01:53:00,28.8,21.2,30.36,NE,45,0.0,0.0,73,0.00,,,0.00,WUHU21623XXSP,2013-03-09 06:53:00,
2013-03-09 01:58:00,28.8,21.2,30.35,ESE,112,0.0,0.0,73,0.00,,,0.00,WUHU21623XXSP,2013-03-09 06:58:00,
2013-03-09 02:03:00,28.8,21.2,30.36,ESE,112,0.0,0.0,73,0.00,,,0.00,WUHU21623XXSP,2013-03-09 07:03:00,
2013-03-09 02:08:00,28.8,21.2,30.35,SSE,157,0.0,0.0,73,0.00,,,0.00,WUHU21623XXSP,2013-03-09 07:08:00,
2013-03-09 02:13:00,28.8,21.2,30.35,SSE,157,0.0,0.0,73,0.00,,,0.00,WUHU21623XXSP,2013-03-09 07:13:00,
2013-03-09 02:18:00,28.8,21.2,30.35,SSE,157,0.0,0.0,73,0.00,,,0.00,WUHU21623XXSP,2013-03-09 07:18:00,
2013-03-09 02:23:00,28.6,21.0,30.35,SE,135,0.0,0.0,73,0.00,,,0.00,WUHU21623XXSP,2013-03-09 07:23:00,
2013-03-09 02:28:00,28.6,21.0,30.34,SE,135,0.0,0.0,73,0.00,,,0.00,WUHU21623XXSP,2013-03-09 07:28:00,
2013-03-09 02:33:00,28.6,21.0,30.34,SE,135,0.0,0.0,73,0.00,,,0.00,WUHU21623XXSP,2013-03-09 07:33:00,
2013-03-09 02:38:00,28.8,21.5,30.34,SE,135,0.0,0.0,74,0.00,,,0.00,WUHU21623XXSP,2013-03-09 07:38:00,
2013-03-09 02:43:00,28.6,21.3,30.34,ESE,112,0.0,0.0,74,0.00,,,0.00,WUHU21623XXSP,2013-03-09 07:43:00,
2013-03-09 02:48:00,28.6,21.3,30.34,ESE,112,0.0,0.0,74,0.00,,,0.00,WUHU21623XXSP,2013-03-09 07:48:00,
2013-03-09 02:53:00,28.6,21.3,30.34,East,90,0.0,0.0,74,0.00,,,0.00,WUHU21623XXSP,2013-03-09 07:53:00,
2013-03-09 02:58:00,28.6,21.3,30.34,East,90,0.0,0.0,74,0.00,,,0.00,WUHU21623XXSP,2013-03-09 07:58:00,
2013-03-09 03:03:00,28.6,21.3,30.33,East,90,0.0,0.0,74,0.00,,,0.00,WUHU21623XXSP,2013-03-09 08:03:00,
2013-03-09 03:08:00,28.6,21.3,30.33,East,90,0.0,0.0,74,0.00,,,0.00,WUHU21623XXSP,2013-03-09 08:08:00,
2013-03-09 03:13:00,28.6,21.3,30.33,East,90,0.0,0.0,74,0.00,,,0.00,WUHU21623XXSP,2013-03-09 08:13:00,
2013-03-09 03:18:00,28.6,21.3,30.33,East,90,0.0,0.0,74,0.00,,,0.00,WUHU21623XXSP,2013-03-09 08:18:00,
2013-03-09 03:23:00,28.2,21.0,30.33,East,90,0.0,0.0,74,0.00,,,0.00,WUHU21623XXSP,2013-03-09 08:23:00,
2013-03-09 03:28:00,28.2,21.0,30.33,East,90,0.0,0.0,74,0.00,,,0.00,WUHU21623XXSP,2013-03-09 08:28:00,
2013-03-09 03:33:00,28.2,21.0,30.33,East,90,0.0,0.0,74,0.00,,,0.00,WUHU21623XXSP,2013-03-09 08:33:00,
2013-03-09 03:38:00,28.0,20.8,30.32,East,90,0.0,0.0,74,0.00,,,0.00,WUHU21623XXSP,2013-03-09 08:38:00,
2013-03-09 03:43:00,28.0,20.8,30.33,East,90,0.0,0.0,74,0.00,,,0.00,WUHU21623XXSP,2013-03-09 08:43:00,
2013-03-09 03:48:00,28.0,20.8,30.32,East,90,0.0,0.0,74,0.00,,,0.00,WUHU21623XXSP,2013-03-09 08:48:00,
2013-03-09 03:53:00,28.0,20.8,30.32,East,90,0.0,0.0,74,0.00,,,0.00,WUHU21623XXSP,2013-03-09 08:53:00,
2013-03-09 03:58:00,28.0,20.8,30.31,East,90,0.0,0.0,74,0.00,,,0.00,WUHU21623XXSP,2013-03-09 08:58:00,
2013-03-09 04:03:00,28.0,21.1,30.31,SE,135,0.0,0.0,75,0.00,,,0.00,WUHU21623XXSP,2013-03-09 09:03:00,
2013-03-09 04:08:00,28.0,21.1,30.31,SE,135,0.0,0.0,75,0.00,,,0.00,WUHU21623XXSP,2013-03-09 09:08:00,
2013-03-09 04:13:00,28.2,21.3,30.31,ESE,112,0.0,0.0,75,0.00,,,0.00,WUHU21623XXSP,2013-03-09 09:13:00,
2013-03-09 04:18:00,28.2,21.3,30.31,ESE,112,0.0,0.0,75,0.00,,,0.00,WUHU21623XXSP,2013-03-09 09:18:00,
2013-03-09 04:23:00,28.2,21.3,30.31,ESE,112,0.0,0.0,75,0.00,,,0.00,WUHU21623XXSP,2013-03-09 09:23:00,
2013-03-09 04:28:00,28.6,21.6,30.31,ESE,112,0.0,0.0,75,0.00,,,0.00,WUHU21623XXSP,2013-03-09 09:28:00,
2013-03-09 04:33:00,28.6,21.6,30.31,SE,135,0.0,0.0,75,0.00,,,0.00,WUHU21623XXSP,2013-03-09 09:33:00,
2013-03-09 04:38:00,28.6,21.6,30.31,East,90,0.0,0.0,75,0.00,,,0.00,WUHU21623XXSP,2013-03-09 09:38:00,
2013-03-09 04:43:00,28.8,22.1,30.31,East,90,0.0,0.0,76,0.00,,,0.00,WUHU21623XXSP,2013-03-09 09:43:00,
2013-03-09 04:48:00,28.8,22.1,30.31,SE,135,0.0,0.0,76,0.00,,,0.00,WUHU21623XXSP,2013-03-09 09:48:00,
2013-03-09 04:53:00,28.9,22.3,30.31,East,90,0.0,0.0,76,0.00,,,0.00,WUHU21623XXSP,2013-03-09 09:53:00,
2013-03-09 04:58:00,28.9,22.3,30.31,SSE,157,0.2,0.2,76,0.00,,,0.00,WUHU21623XXSP,2013-03-09 09:58:00,
2013-03-09 05:03:00,28.9,22.3,30.31,ESE,112,0.0,0.2,76,0.00,,,0.00,WUHU21623XXSP,2013-03-09 10:03:00,
2013-03-09 05:08:00,28.9,22.3,30.31,ESE,112,0.0,0.2,76,0.00,,,0.00,WUHU21623XXSP,2013-03-09 10:08:00,
2013-03-09 05:13:00,28.9,22.3,30.30,SE,135,0.0,0.0,76,0.00,,,0.00,WUHU21623XXSP,2013-03-09 10:13:00,
2013-03-09 05:18:00,29.1,22.5,30.30,SE,135,1.6,1.6,76,0.00,,,0.00,WUHU21623XXSP,2013-03-09 10:18:00,
2013-03-09 05:23:00,29.1,22.5,30.30,SE,135,1.6,1.6,76,0.00,,,0.00,WUHU21623XXSP,2013-03-09 10:23:00,
2013-03-09 05:28:00,29.1,22.5,30.30,ESE,112,0.0,1.6,76,0.00,,,0.00,WUHU21623XXSP,2013-03-09 10:28:00,
2013-03-09 05:33:00,29.1,22.5,30.29,East,90,4.7,4.7,76,0.00,,,0.00,WUHU21623XXSP,2013-03-09 10:33:00,
2013-03-09 05:38:00,29.1,22.5,30.30,East,90,4.7,4.7,76,0.00,,,0.00,WUHU21623XXSP,2013-03-09 10:38:00,
2013-03-09 05:43:00,29.1,22.5,30.30,SE,135,0.0,4.7,76,0.00,,,0.00,WUHU21623XXSP,2013-03-09 10:43:00,
2013-03-09 05:48:00,29.1,22.8,30.30,SE,135,0.0,0.0,77,0.00,,,0.00,WUHU21623XXSP,2013-03-09 10:48:00,
2013-03-09 05:53:00,29.3,22.9,30.30,SE,135,0.0,0.0,77,0.00,,,0.00,WUHU21623XXSP,2013-03-09 10:53:00,
2013-03-09 05:58:00,29.3,22.9,30.30,ESE,112,0.0,0.0,77,0.00,,,0.00,WUHU21623XXSP,2013-03-09 10:58:00,
2013-03-09 06:03:00,29.3,22.9,30.29,ESE,112,1.1,1.1,77,0.00,,,0.00,WUHU21623XXSP,2013-03-09 11:03:00,
2013-03-09 06:08:00,29.5,23.1,30.30,ESE,112,1.1,1.1,77,0.00,,,0.00,WUHU21623XXSP,2013-03-09 11:08:00,
2013-03-09 06:13:00,29.5,23.1,30.29,South,180,0.0,1.1,77,0.00,,,0.00,WUHU21623XXSP,2013-03-09 11:13:00,
2013-03-09 06:18:00,29.7,23.3,30.29,ESE,112,0.0,0.0,77,0.00,,,0.00,WUHU21623XXSP,2013-03-09 11:18:00,
2013-03-09 06:23:00,29.7,23.3,30.29,ESE,112,1.3,1.3,77,0.00,,,0.00,WUHU21623XXSP,2013-03-09 11:23:00,
2013-03-09 06:28:00,29.8,23.5,30.29,SE,135,2.7,2.7,77,0.00,,,0.00,WUHU21623XXSP,2013-03-09 11:28:00,
2013-03-09 06:33:00,29.8,23.5,30.29,SE,135,0.0,2.7,77,0.00,,,0.00,WUHU21623XXSP,2013-03-09 11:33:00,
2013-03-09 06:38:00,29.8,23.5,30.28,SE,135,0.0,2.7,77,0.00,,,0.00,WUHU21623XXSP,2013-03-09 11:38:00,
2013-03-09 06:43:00,29.8,23.5,30.28,SE,135,0.0,0.0,77,0.00,,,0.00,WUHU21623XXSP,2013-03-09 11:43:00,
2013-03-09 06:48:00,29.8,23.5,30.28,SE,135,0.0,0.0,77,0.00,,,0.00,WUHU21623XXSP,2013-03-09 11:48:00,
2013-03-09 06:53:00,30.0,24.0,30.28,SE,135,0.0,0.0,78,0.00,,,0.00,WUHU21623XXSP,2013-03-09 11:53:00,
2013-03-09 06:58:00,30.0,24.0,30.28,ESE,112,2.5,2.5,78,0.00,,,0.00,WUHU21623XXSP,2013-03-09 11:58:00,
2013-03-09 07:03:00,30.0,24.0,30.28,ESE,112,1.8,2.5,78,0.00,,,0.00,WUHU21623XXSP,2013-03-09 12:03:00,
2013-03-09 07:08:00,30.2,24.2,30.28,South,180,2.2,2.5,78,0.00,,,0.00,WUHU21623XXSP,2013-03-09 12:08:00,
2013-03-09 07:13:00,30.2,24.2,30.29,SE,135,0.0,2.2,78,0.00,,,0.00,WUHU21623XXSP,2013-03-09 12:13:00,
2013-03-09 07:18:00,30.2,24.2,30.28,SSE,157,0.0,2.2,78,0.00,,,0.00,WUHU21623XXSP,2013-03-09 12:18:00,
2013-03-09 07:23:00,30.4,24.3,30.28,ESE,112,0.0,0.0,78,0.00,,,0.00,WUHU21623XXSP,2013-03-09 12:23:00,
2013-03-09 07:28:00,30.4,24.3,30.28,ESE,112,0.0,0.0,78,0.00,,,0.00,WUHU21623XXSP,2013-03-09 12:28:00,
2013-03-09 07:33:00,30.6,24.5,30.28,SSE,157,0.9,0.9,78,0.00,,,0.00,WUHU21623XXSP,2013-03-09 12:33:00,
2013-03-09 07:38:00,30.6,24.5,30.29,SSE,157,0.0,0.9,78,0.00,,,0.00,WUHU21623XXSP,2013-03-09 12:38:00,
2013-03-09 07:43:00,30.6,24.5,30.29,SE,135,0.0,0.0,78,0.00,,,0.00,WUHU21623XXSP,2013-03-09 12:43:00,
2013-03-09 07:48:00,30.7,24.7,30.29,SSW,202,0.0,0.0,78,0.00,,,0.00,WUHU21623XXSP,2013-03-09 12:48:00,
2013-03-09 07:53:00,30.7,24.7,30.29,SE,135,0.0,0.0,78,0.00,,,0.00,WUHU21623XXSP,2013-03-09 12:53:00,
2013-03-09 07:58:00,30.7,24.7,30.29,SE,135,0.0,0.0,78,0.00,,,0.00,WUHU21623XXSP,2013-03-09 12:58:00,
2013-03-09 08:03:00,31.1,25.1,30.29,ESE,112,0.0,0.0,78,0.00,,,0.00,WUHU21623XXSP,2013-03-09 13:03:00,
2013-03-09 08:08:00,31.1,25.1,30.29,ESE,112,0.9,0.9,78,0.00,,,0.00,WUHU21623XXSP,2013-03-09 13:08:00,
2013-03-09 08:13:00,31.3,25.2,30.30,ESE,112,0.0,0.9,78,0.00,,,0.00,WUHU21623XXSP,2013-03-09 13:13:00,
2013-03-09 08:18:00,31.3,25.2,30.29,ESE,112,0.0,0.9,78,0.00,,,0.00,WUHU21623XXSP,2013-03-09 13:18:00,
2013-03-09 08:23:00,31.6,25.6,30.29,SE,135,0.7,0.7,78,0.00,,,0.00,WUHU21623XXSP,2013-03-09 13:23:00,
2013-03-09 08:28:00,31.6,25.6,30.29,SE,135,0.0,0.7,78,0.00,,,0.00,WUHU21623XXSP,2013-03-09 13:28:00,
2013-03-09 08:33:00,31.6,25.6,30.29,ESE,112,1.8,1.8,78,0.00,,,0.00,WUHU21623XXSP,2013-03-09 13:33:00,
2013-03-09 08:38:00,31.8,25.8,30.30,SSE,157,0.0,1.8,78,0.00,,,0.00,WUHU21623XXSP,2013-03-09 13:38:00,
2013-03-09 08:43:00,31.8,25.8,30.30,SSE,157,0.0,1.8,78,0.00,,,0.00,WUHU21623XXSP,2013-03-09 13:43:00,
2013-03-09 08:48:00,32.2,26.1,30.31,SSE,157,0.0,0.0,78,0.00,,,0.00,WUHU21623XXSP,2013-03-09 13:48:00,
2013-03-09 08:53:00,32.2,26.1,30.31,SSE,157,0.0,0.0,78,0.00,,,0.00,WUHU21623XXSP,2013-03-09 13:53:00,
2013-03-09 08:58:00,32.5,26.4,30.30,SSE,157,0.0,0.0,78,0.00,,,0.00,WUHU21623XXSP,2013-03-09 13:58:00,
2013-03-09 09:03:00,32.7,26.6,30.31,SSE,157,0.0,0.0,78,0.00,,,0.00,WUHU21623XXSP,2013-03-09 14:03:00,
2013-03-09 09:08:00,32.7,26.6,30.30,South,180,0.0,0.0,78,0.00,,,0.00,WUHU21623XXSP,2013-03-09 14:08:00,
2013-03-09 09:13:00,32.9,26.8,30.29,SE,135,0.0,0.0,78,0.00,,,0.00,WUHU21623XXSP,2013-03-09 14:13:00,
2013-03-09 09:18:00,32.9,26.8,30.30,WSW,247,0.0,0.0,78,0.00,,,0.00,WUHU21623XXSP,2013-03-09 14:18:00,
2013-03-09 09:23:00,33.1,26.9,30.29,ESE,112,0.4,57.5,78,0.00,,,0.00,WUHU21623XXSP,2013-03-09 14:23:00,
2013-03-09 09:28:00,33.1,26.9,30.30,ESE,112,0.0,57.5,78,0.00,,,0.00,WUHU21623XXSP,2013-03-09 14:28:00,
2013-03-09 09:33:00,33.1,26.9,30.30,ESE,112,0.0,0.0,78,0.00,,,0.00,WUHU21623XXSP,2013-03-09 14:33:00,
2013-03-09 09:38:00,33.1,26.9,30.30,ESE,112,0.0,0.0,78,0.00,,,0.00,WUHU21623XXSP,2013-03-09 14:38:00,
2013-03-09 09:43:00,33.1,26.9,30.29,ESE,112,0.0,0.0,78,0.00,,,0.00,WUHU21623XXSP,2013-03-09 14:43:00,
2013-03-09 09:47:00,34.3,27.8,30.29,ESE,112,0.0,0.0,77,0.00,,,0.00,WUHU21623XXSP,2013-03-09 14:47:00,
2013-03-09 09:52:00,34.3,27.8,30.29,SSE,157,0.0,0.0,77,0.00,,,0.00,WUHU21623XXSP,2013-03-09 14:52:00,
2013-03-09 09:58:00,34.3,27.8,30.29,SSE,157,0.0,0.0,77,0.00,,,0.00,WUHU21623XXSP,2013-03-09 14:58:00,
2013-03-09 10:03:00,34.3,27.8,30.28,SSE,157,0.0,0.0,77,0.00,,,0.00,WUHU21623XXSP,2013-03-09 15:03:00,
2013-03-09 10:04:00,34.3,27.8,30.28,North,0,0.0,0.0,77,0.00,,,0.00,WUHU21623XXSP,2013-03-09 15:04:00,
2013-03-09 10:08:00,34.3,27.8,30.28,SSE,157,0.0,0.0,77,0.00,,,0.00,WUHU21623XXSP,2013-03-09 15:08:00,
2013-03-09 10:12:00,34.3,27.8,30.28,North,0,0.0,0.0,77,0.00,,,0.00,WUHU21623XXSP,2013-03-09 15:12:00,
2013-03-09 10:17:00,36.0,29.1,30.27,ESE,112,2.0,2.0,76,0.00,,,0.00,WUHU21623XXSP,2013-03-09 15:17:00,
2013-03-09 10:22:00,36.0,29.1,30.27,ESE,112,2.0,2.0,76,0.00,,,0.00,WUHU21623XXSP,2013-03-09 15:22:00,
2013-03-09 10:27:00,36.0,29.1,30.28,ESE,112,2.0,2.0,76,0.00,,,0.00,WUHU21623XXSP,2013-03-09 15:27:00,
2013-03-09 10:33:00,37.0,29.5,30.27,SE,135,4.7,4.7,74,0.00,,,0.00,WUHU21623XXSP,2013-03-09 15:33:00,
2013-03-09 10:38:00,37.0,29.5,30.28,SSE,157,2.5,4.7,74,0.00,,,0.00,WUHU21623XXSP,2013-03-09 15:38:00,
2013-03-09 10:43:00,37.8,30.2,30.28,SSE,157,2.5,4.7,74,0.00,,,0.00,WUHU21623XXSP,2013-03-09 15:43:00,
2013-03-09 10:48:00,37.9,29.7,30.28,South,180,3.4,3.4,72,0.00,,,0.00,WUHU21623XXSP,2013-03-09 15:48:00,
2013-03-09 10:53:00,38.1,29.9,30.27,South,180,3.4,3.4,72,0.00,,,0.00,WUHU21623XXSP,2013-03-09 15:53:00,
2013-03-09 10:58:00,38.1,29.6,30.28,SE,135,0.0,3.4,71,0.00,,,0.00,WUHU21623XXSP,2013-03-09 15:58:00,
2013-03-09 11:03:00,38.6,30.1,30.27,SSE,157,0.0,7.2,71,0.00,,,0.00,WUHU21623XXSP,2013-03-09 16:03:00,
2013-03-09 11:08:00,38.5,30.0,30.27,SW,225,0.0,7.2,71,0.00,,,0.00,WUHU21623XXSP,2013-03-09 16:08:00,
2013-03-09 11:13:00,38.2,29.7,30.27,South,180,0.0,0.0,71,0.00,,,0.00,WUHU21623XXSP,2013-03-09 16:13:00,
2013-03-09 11:18:00,37.9,29.1,30.27,SSW,202,1.8,1.8,70,0.00,,,0.00,WUHU21623XXSP,2013-03-09 16:18:00,
2013-03-09 11:23:00,37.6,28.8,30.27,SSE,157,2.0,2.0,70,0.00,,,0.00,WUHU21623XXSP,2013-03-09 16:23:00,
2013-03-09 11:27:00,37.3,28.5,30.26,South,180,0.0,2.0,70,0.00,,,0.00,WUHU21623XXSP,2013-03-09 16:27:00,
2013-03-09 11:32:00,37.0,28.2,30.26,South,180,0.0,2.0,70,0.00,,,0.00,WUHU21623XXSP,2013-03-09 16:32:00,
2013-03-09 11:37:00,37.1,28.3,30.26,South,180,0.0,0.0,70,0.00,,,0.00,WUHU21623XXSP,2013-03-09 16:37:00,
2013-03-09 11:42:00,36.8,27.7,30.26,SSE,157,3.4,3.4,69,0.00,,,0.00,WUHU21623XXSP,2013-03-09 16:42:00,
2013-03-09 11:47:00,36.6,27.8,30.26,South,180,0.0,3.4,70,0.00,,,0.00,WUHU21623XXSP,2013-03-09 16:47:00,
2013-03-09 11:52:00,36.5,27.4,30.26,South,180,3.8,3.8,69,0.00,,,0.00,WUHU21623XXSP,2013-03-09 16:52:00,
2013-03-09 11:57:00,36.2,27.1,30.26,South,180,3.8,3.8,69,0.00,,,0.00,WUHU21623XXSP,2013-03-09 16:57:00,
2013-03-09 12:02:00,36.1,26.9,30.25,South,180,4.0,4.0,69,0.00,,,0.00,WUHU21623XXSP,2013-03-09 17:02:00,
2013-03-09 12:07:00,35.8,26.7,30.25,South,180,3.6,4.0,69,0.00,,,0.00,WUHU21623XXSP,2013-03-09 17:07:00,
2013-03-09 12:12:00,35.7,26.6,30.25,South,180,2.7,4.0,69,0.00,,,0.00,WUHU21623XXSP,2013-03-09 17:12:00,
2013-03-09 12:17:00,35.7,26.6,30.24,SSE,157,1.8,3.6,69,0.00,,,0.00,WUHU21623XXSP,2013-03-09 17:17:00,
2013-03-09 12:22:00,35.7,26.6,30.23,South,180,0.0,2.7,69,0.00,,,0.00,WUHU21623XXSP,2013-03-09 17:22:00,
2013-03-09 12:27:00,35.9,26.8,30.23,SE,135,5.8,5.8,69,0.00,,,0.00,WUHU21623XXSP,2013-03-09 17:27:00,
2013-03-09 12:32:00,36.1,26.7,30.22,ESE,112,0.0,5.8,68,0.00,,,0.00,WUHU21623XXSP,2013-03-09 17:32:00,
2013-03-09 12:37:00,35.9,26.5,30.22,East,98,1.2,5.8,68,0.00,,,0.00,WUHU21623XXSP,2013-03-09 17:37:00,
2013-03-09 12:42:00,36.0,26.6,30.22,SE,135,1.1,1.6,68,0.00,,,0.00,WUHU21623XXSP,2013-03-09 17:42:00,
2013-03-09 12:47:00,35.8,26.4,30.21,SE,135,1.1,1.1,68,0.00,,,0.00,WUHU21623XXSP,2013-03-09 17:47:00,
2013-03-09 12:52:00,35.7,26.2,30.21,SE,135,1.1,1.1,68,0.00,,,0.00,WUHU21623XXSP,2013-03-09 17:52:00,
2013-03-09 12:57:00,35.5,26.1,30.20,SE,135,1.1,1.1,68,0.00,,,0.00,WUHU21623XXSP,2013-03-09 17:57:00,
2013-03-09 13:02:00,35.4,25.6,30.20,SE,135,1.1,1.1,67,0.00,,,0.00,WUHU21623XXSP,2013-03-09 18:02:00,
2013-03-09 13:07:00,35.2,25.4,30.20,SE,135,1.1,1.1,67,0.00,,,0.00,WUHU21623XXSP,2013-03-09 18:07:00,
2013-03-09 13:12:00,36.0,25.8,30.20,SE,135,1.1,1.1,66,0.00,,,0.00,WUHU21623XXSP,2013-03-09 18:12:00,
2013-03-09 13:17:00,35.9,25.7,30.20,SE,135,1.1,1.1,66,0.00,,,0.00,WUHU21623XXSP,2013-03-09 18:17:00,
2013-03-09 13:22:00,35.8,25.6,30.19,SE,135,1.1,1.1,66,0.00,,,0.00,WUHU21623XXSP,2013-03-09 18:22:00,
2013-03-09 13:27:00,35.7,25.5,30.19,SE,135,1.1,1.1,66,0.00,,,0.00,WUHU21623XXSP,2013-03-09 18:27:00,
2013-03-09 13:32:00,35.6,25.4,30.18,SE,135,1.1,1.1,66,0.00,,,0.00,WUHU21623XXSP,2013-03-09 18:32:00,
2013-03-09 13:34:00,35.6,25.4,30.18,North,0,0.0,0.0,66,0.00,,,0.00,WUHU21623XXSP,2013-03-09 18:34:00,
2013-03-09 13:37:00,35.6,25.4,30.18,SE,135,1.1,1.1,66,0.00,,,0.00,WUHU21623XXSP,2013-03-09 18:37:00,
2013-03-09 13:42:00,35.6,25.4,30.18,North,0,0.0,0.0,66,0.00,,,0.00,WUHU21623XXSP,2013-03-09 18:42:00,
2013-03-09 22:29:00,39.6,32.9,29.99,South,180,0.0,0.0,77,0.00,,,0.00,WUHU21623XXSP,2013-03-10 03:29:00,
2013-03-09 22:34:00,39.6,32.9,29.99,South,180,0.0,0.0,77,0.00,,,0.00,WUHU21623XXSP,2013-03-10 03:34:00,
2013-03-09 22:39:00,39.6,32.9,29.99,South,180,0.0,0.0,77,0.00,,,0.00,WUHU21623XXSP,2013-03-10 03:39:00,
2013-03-09 22:42:00,39.6,32.9,29.99,North,0,0.0,0.0,77,0.00,,,0.00,WUHU21623XXSP,2013-03-10 03:42:00,
2013-03-09 22:44:00,39.6,32.9,29.99,South,180,0.0,0.0,77,0.00,,,0.00,WUHU21623XXSP,2013-03-10 03:44:00,
2013-03-09 22:49:00,39.6,32.9,29.99,North,0,0.0,0.0,77,0.00,,,0.00,WUHU21623XXSP,2013-03-10 03:49:00,